Terminal Aerodrome Forecast
Issued by NWS

Home | Current Version | Previous Version | Text Only | Print | Product List | Glossary On
Versions: 1 2 3 4 5 6 7 8 9 10 11 12 13 14 15 16 17 18 19 20 21 22 23 24
692
FTUS43 KGRB 241135
TAFMTW
TAF
KMTW 241135Z 2412/2512 30006KT P6SM SCT004 OVC015
      TEMPO 2412/2415 4SM BR BKN004
     FM250200 07003KT 2SM -DZ BR OVC007
     FM250600 08006KT 1 1/2SM -SN OVC005
      TEMPO 2509/2512 3/4SM -SN OVC003=

USA.gov is the U.S. government's official web portal to all federal, state and local government web resources and services.